Time;durP1;ratioP1;P1;durP2;ratioP2;P2;SDS_P1;SDS_P2;PMS_P1;PMS_P2;Temp;Humidity;BMP_temperature;BMP_pressure;BME280_temperature;BME280_humidity;BME280_pressure;Samples;Min_cycle;Max_cycle;Signal;HPM_P1;HPM_P2
2021/04/10 00:00:40;;;;;;;20.33;13.37;;;;;;;3.23;51.88;99331.73;471346;1171;113996;-61
2021/04/10 00:10:45;;;;;;;23.63;14.03;;;;;;;3.11;51.70;99322.65;471305;1171;115058;-63
2021/04/10 00:20:48;;;;;;;27.63;15.87;;;;;;;3.11;52.33;99325.24;471189;1171;114889;-62
2021/04/10 00:31:06;;;;;;;21.33;13.00;;;;;;;2.99;52.40;99317.92;471275;1170;114425;-62
2021/04/10 00:41:13;;;;;;;23.10;14.20;;;;;;;2.82;53.11;99321.99;469856;1171;115184;-64
2021/04/10 00:51:17;;;;;;;34.93;17.80;;;;;;;2.62;53.26;99327.91;471526;1170;114013;-63
2021/04/10 01:01:22;;;;;;;24.50;13.85;;;;;;;2.49;53.71;99320.56;471935;1169;114129;-62
2021/04/10 01:11:42;;;;;;;19.05;12.85;;;;;;;2.43;54.13;99318.17;471743;1171;114094;-62
2021/04/10 01:21:51;;;;;;;18.13;10.83;;;;;;;2.37;54.57;99320.99;471676;1171;115614;-62
2021/04/10 01:31:56;;;;;;;21.03;12.70;;;;;;;2.26;55.04;99326.53;471358;1170;114280;-61
2021/04/10 01:42:02;;;;;;;21.50;11.47;;;;;;;2.15;55.27;99315.68;471213;1171;114182;-61
2021/04/10 01:52:07;;;;;;;20.93;12.17;;;;;;;2.04;56.05;99314.30;471139;1170;114461;-61
2021/04/10 02:02:13;;;;;;;34.85;18.45;;;;;;;1.91;56.41;99311.28;471243;1171;114694;-61
2021/04/10 02:12:21;;;;;;;16.97;11.97;;;;;;;1.79;56.22;99307.34;471300;1171;114245;-60
2021/04/10 02:22:32;;;;;;;20.13;11.53;;;;;;;1.66;57.07;99313.81;471299;1170;114396;-61
2021/04/10 02:32:38;;;;;;;22.60;12.15;;;;;;;1.51;57.47;99318.58;471200;1172;114454;-62
2021/04/10 02:42:46;;;;;;;20.63;11.68;;;;;;;1.46;57.36;99319.62;471432;1171;114050;-61
2021/04/10 02:52:50;;;;;;;;;;;;;;;1.38;57.73;99323.28;471723;1170;114710;-61
2021/04/10 03:02:57;;;;;;;23.07;12.20;;;;;;;1.31;57.93;99314.00;472057;1171;100869;-63
2021/04/10 03:13:01;;;;;;;25.30;13.08;;;;;;;1.15;58.19;99310.19;471859;1171;113963;-61
2021/04/10 03:23:06;;;;;;;21.90;11.90;;;;;;;1.03;58.88;99311.38;471490;1171;114296;-61
2021/04/10 03:33:10;;;;;;;36.13;18.87;;;;;;;1.06;59.04;99316.49;462849;1171;10001515;-62
2021/04/10 03:43:14;;;;;;;28.87;14.63;;;;;;;1.05;59.41;99309.63;470358;1171;114774;-64
2021/04/10 03:53:17;;;;;;;23.05;13.45;;;;;;;0.95;59.61;99314.20;471009;1170;115091;-59
2021/04/10 04:03:22;;;;;;;23.10;12.57;;;;;;;0.90;59.97;99322.08;471594;1171;114151;-61
2021/04/10 04:13:27;;;;;;;22.60;14.40;;;;;;;1.15;60.23;99318.78;471490;1171;114164;-62
2021/04/10 04:23:30;;;;;;;27.23;15.53;;;;;;;1.46;59.71;99332.56;471368;1170;115370;-62
2021/04/10 04:33:34;;;;;;;20.60;11.20;;;;;;;2.07;59.43;99337.49;471574;1170;114615;-61
2021/04/10 04:43:38;;;;;;;18.63;11.57;;;;;;;2.73;58.37;99351.70;471671;1171;113996;-61
2021/04/10 04:53:41;;;;;;;14.40;9.95;;;;;;;3.35;57.72;99351.20;471884;1170;114392;-61
2021/04/10 05:03:45;;;;;;;19.80;12.45;;;;;;;4.31;56.48;99343.91;471264;1170;114202;-61
2021/04/10 05:13:51;;;;;;;16.90;10.85;;;;;;;5.57;54.46;99348.79;471262;1170;113966;-61
2021/04/10 05:23:55;;;;;;;15.50;9.20;;;;;;;7.07;52.74;99352.67;471529;1170;114812;-61
2021/04/10 05:33:58;;;;;;;17.47;10.40;;;;;;;9.29;51.20;99366.17;471300;1171;113820;-62
2021/04/10 05:44:02;;;;;;;19.40;13.20;;;;;;;17.52;44.53;99359.73;471162;1171;114144;-60
2021/04/10 05:54:08;;;;;;;19.23;13.43;;;;;;;22.88;37.41;99356.69;471398;1171;115194;-61
2021/04/10 06:04:12;;;;;;;20.47;16.20;;;;;;;26.33;33.14;99353.56;471388;1171;114749;-63
2021/04/10 06:14:15;;;;;;;20.40;15.25;;;;;;;28.02;28.72;99342.15;471284;1171;114808;-63
2021/04/10 06:24:19;;;;;;;22.03;17.13;;;;;;;29.67;26.60;99354.36;471067;1171;115036;-63
2021/04/10 06:34:23;;;;;;;15.23;12.73;;;;;;;32.56;24.04;99355.92;471274;1171;114991;-61
2021/04/10 06:44:28;;;;;;;12.65;10.70;;;;;;;35.42;21.77;99322.84;470455;1171;115483;-62
2021/04/10 06:54:34;;;;;;;11.73;10.00;;;;;;;35.86;19.62;99318.83;471526;1171;116279;-61
2021/04/10 07:04:39;;;;;;;13.95;10.75;;;;;;;37.49;18.28;99327.06;471344;1171;114316;-61
2021/04/10 07:14:44;;;;;;;12.68;10.33;;;;;;;40.15;16.96;99323.58;471717;1170;115354;-62
2021/04/10 07:24:50;;;;;;;11.20;10.13;;;;;;;41.17;16.19;99324.59;471500;1171;114807;-62
2021/04/10 07:34:56;;;;;;;10.70;8.90;;;;;;;39.08;15.51;99336.77;471410;1171;114596;-61
2021/04/10 07:44:59;;;;;;;10.30;9.00;;;;;;;37.34;15.61;99338.93;471236;1171;114618;-62
2021/04/10 07:55:04;;;;;;;12.05;10.85;;;;;;;38.02;14.93;99328.32;470034;1171;114425;-62
2021/04/10 08:05:10;;;;;;;11.37;10.20;;;;;;;37.70;14.06;99311.31;471508;1171;114833;-63
2021/04/10 08:15:25;;;;;;;9.90;8.80;;;;;;;37.75;14.17;99318.67;471573;1171;115118;-62
2021/04/10 08:25:31;;;;;;;10.37;9.30;;;;;;;38.33;13.74;99330.77;471264;1171;115356;-63
2021/04/10 08:35:36;;;;;;;11.80;10.70;;;;;;;34.78;14.10;99323.75;472435;1170;114250;-62
2021/04/10 08:45:40;;;;;;;11.13;10.10;;;;;;;28.39;16.13;99329.59;472113;1170;114356;-62
2021/04/10 08:55:44;;;;;;;9.87;8.53;;;;;;;24.85;18.20;99328.95;471467;1170;114751;-61
2021/04/10 09:05:50;;;;;;;10.20;8.10;;;;;;;23.13;19.42;99334.97;471382;1170;114233;-61
2021/04/10 09:16:24;;;;;;;11.67;8.47;;;;;;;21.84;20.61;99345.56;471183;1171;114233;-61
2021/04/10 09:26:27;;;;;;;10.70;9.10;;;;;;;21.04;21.73;99353.63;470993;1171;114994;-60
2021/04/10 09:36:48;;;;;;;12.40;9.07;;;;;;;19.95;22.62;99369.91;471147;1171;114623;-61
2021/04/10 09:46:55;;;;;;;11.80;8.60;;;;;;;19.94;23.38;99360.25;471219;1170;114307;-62
2021/04/10 09:57:02;;;;;;;13.57;7.50;;;;;;;20.55;23.17;99366.08;455564;1171;20003178;-62
2021/04/10 10:07:06;;;;;;;10.00;7.17;;;;;;;20.84;22.88;99356.69;471172;1171;115277;-63
2021/04/10 10:17:11;;;;;;;11.33;7.63;;;;;;;20.92;23.02;99349.67;471275;1170;115533;-62
2021/04/10 10:27:14;;;;;;;11.35;6.55;;;;;;;21.04;23.08;99355.45;471254;1171;115200;-63
2021/04/10 10:37:24;;;;;;;13.00;7.17;;;;;;;20.38;22.76;99343.93;471257;1171;114427;-62
2021/04/10 10:47:27;;;;;;;13.85;7.05;;;;;;;19.56;23.46;99345.48;471349;1171;114542;-62
2021/04/10 10:57:32;;;;;;;11.00;7.20;;;;;;;19.39;23.58;99343.80;470831;1170;114883;-62
2021/04/10 11:07:36;;;;;;;23.73;12.10;;;;;;;19.19;23.82;99346.71;470763;1170;114704;-62
2021/04/10 11:17:41;;;;;;;9.37;6.30;;;;;;;18.48;24.13;99347.64;471149;1171;114425;-62
2021/04/10 11:27:44;;;;;;;6.10;5.50;;;;;;;18.70;23.67;99336.63;471237;1171;114945;-62
2021/04/10 11:37:50;;;;;;;8.45;7.50;;;;;;;18.75;24.01;99351.13;471121;1170;114232;-61
2021/04/10 11:48:10;;;;;;;12.30;6.27;;;;;;;19.06;23.85;99333.02;471320;1170;115949;-62
2021/04/10 11:58:13;;;;;;;7.20;6.13;;;;;;;18.97;24.13;99337.45;470963;1170;115969;-62
2021/04/10 12:08:25;;;;;;;7.33;6.63;;;;;;;18.82;24.88;99327.42;471725;1171;114945;-62
2021/04/10 12:18:29;;;;;;;10.13;5.97;;;;;;;18.87;24.56;99313.61;471495;1171;114272;-64
2021/04/10 12:28:34;;;;;;;9.70;5.97;;;;;;;18.91;25.31;99312.33;470947;1170;114289;-59
2021/04/10 12:38:39;;;;;;;16.00;10.23;;;;;;;19.10;25.37;99318.39;471127;1170;114489;-62
2021/04/10 12:48:43;;;;;;;13.20;6.95;;;;;;;18.84;25.27;99305.96;472186;1171;116396;-62
2021/04/10 12:58:47;;;;;;;9.33;5.57;;;;;;;18.68;25.52;99304.90;471647;1171;114598;-64
2021/04/10 13:08:50;;;;;;;13.85;5.70;;;;;;;18.53;25.65;99311.80;471517;1171;113905;-66
2021/04/10 13:18:54;;;;;;;5.05;3.20;;;;;;;18.34;26.11;99309.17;471358;1171;114674;-66
2021/04/10 13:28:58;;;;;;;7.00;4.05;;;;;;;17.99;25.99;99310.87;471907;1171;114185;-67
2021/04/10 13:39:02;;;;;;;9.85;4.30;;;;;;;17.63;26.64;99309.08;471108;1171;114402;-66
2021/04/10 13:49:07;;;;;;;6.40;3.23;;;;;;;17.52;27.68;99311.95;471846;1170;114068;-64
2021/04/10 13:59:10;;;;;;;20.23;11.03;;;;;;;17.43;27.92;99321.66;463427;1171;10001734;-63
2021/04/10 14:09:14;;;;;;;10.23;7.03;;;;;;;17.04;28.46;99327.16;471255;1170;115578;-61
2021/04/10 14:19:18;;;;;;;9.37;5.53;;;;;;;16.55;29.16;99330.80;471155;1170;115088;-63
2021/04/10 14:29:21;;;;;;;57.00;9.95;;;;;;;16.14;29.53;99344.25;471297;1171;113909;-71
2021/04/10 14:39:25;;;;;;;7.45;3.70;;;;;;;15.82;29.98;99346.18;471501;1170;115054;-70
2021/04/10 14:49:29;;;;;;;6.20;4.00;;;;;;;15.50;30.60;99354.34;471759;1170;114012;-72
2021/04/10 14:59:32;;;;;;;12.13;6.90;;;;;;;15.44;30.90;99346.95;471554;1171;114546;-75
2021/04/10 15:09:36;;;;;;;12.85;7.60;;;;;;;15.60;31.61;99344.61;471066;1170;115841;-73
2021/04/10 15:19:41;;;;;;;7.67;4.80;;;;;;;15.95;30.97;99347.75;471535;1171;114189;-73
2021/04/10 15:29:45;;;;;;;9.27;5.47;;;;;;;16.16;30.69;99352.89;471353;1170;114589;-73
2021/04/10 15:39:51;;;;;;;6.30;4.90;;;;;;;15.91;30.66;99357.77;471517;1171;113885;-73
2021/04/10 15:49:54;;;;;;;8.27;5.57;;;;;;;15.57;31.71;99360.77;471535;1171;115319;-74
2021/04/10 15:59:58;;;;;;;6.90;4.65;;;;;;;15.26;32.07;99371.40;472986;1171;114002;-74
2021/04/10 16:10:03;;;;;;;14.93;6.90;;;;;;;14.96;32.56;99367.82;472940;1171;114015;-67
2021/04/10 16:20:09;;;;;;;15.90;10.65;;;;;;;14.41;33.72;99380.25;472328;1169;114491;-74
2021/04/10 16:30:15;;;;;;;18.40;13.47;;;;;;;14.00;34.56;99388.00;471416;1170;115336;-74
2021/04/10 16:40:20;;;;;;;22.20;14.03;;;;;;;13.54;35.33;99396.99;471135;1170;114554;-74
2021/04/10 16:50:28;;;;;;;20.87;14.93;;;;;;;13.30;36.06;99401.44;471687;1171;114850;-75
2021/04/10 17:00:33;;;;;;;25.33;15.43;;;;;;;13.12;36.81;99408.98;470073;1171;115267;-72
2021/04/10 17:10:37;;;;;;;24.90;17.40;;;;;;;12.97;37.56;99425.97;471519;1171;115069;-72
2021/04/10 17:20:42;;;;;;;26.80;19.30;;;;;;;12.79;38.44;99451.93;471488;1171;114914;-72
2021/04/10 17:30:46;;;;;;;30.57;18.23;;;;;;;12.53;39.13;99458.22;471714;1170;115486;-71
2021/04/10 17:40:50;;;;;;;27.40;15.75;;;;;;;12.37;40.18;99484.84;462805;1171;10002985;-71
2021/04/10 17:50:55;;;;;;;26.40;18.73;;;;;;;12.25;40.77;99478.67;486475;1170;115289;-72
2021/04/10 18:00:59;;;;;;;30.63;21.27;;;;;;;12.12;41.57;99496.31;471497;1170;114826;-73
2021/04/10 18:11:04;;;;;;;29.03;21.23;;;;;;;11.83;42.72;99501.82;471248;1171;114653;-72
2021/04/10 18:21:08;;;;;;;29.23;20.37;;;;;;;11.49;43.42;99510.30;471954;1170;115363;-71
2021/04/10 18:31:12;;;;;;;32.47;23.83;;;;;;;11.28;44.40;99529.22;471882;1170;114821;-73
2021/04/10 18:41:17;;;;;;;30.55;21.75;;;;;;;11.07;44.79;99521.02;463777;1169;10112969;-73
2021/04/10 18:51:21;;;;;;;31.60;21.33;;;;;;;10.83;45.36;99531.36;471407;1170;116302;-73
2021/04/10 19:01:27;;;;;;;27.80;20.90;;;;;;;10.55;46.26;99541.06;471630;1170;114360;-74
2021/04/10 19:11:31;;;;;;;65.00;39.85;;;;;;;10.31;46.77;99537.25;471255;1170;115633;-73
2021/04/10 19:21:35;;;;;;;38.37;27.07;;;;;;;10.08;47.49;99544.80;471367;1170;114749;-76
2021/04/10 19:31:39;;;;;;;38.57;28.83;;;;;;;9.97;48.19;99551.67;471797;1171;114334;-74
2021/04/10 19:41:43;;;;;;;52.00;33.40;;;;;;;9.91;48.55;99550.27;470812;1171;114386;-74
2021/04/10 19:51:47;;;;;;;55.30;30.35;;;;;;;9.86;49.39;99554.94;471549;1170;114162;-74
2021/04/10 20:01:52;;;;;;;47.60;29.73;;;;;;;9.63;49.49;99559.81;471395;1170;115465;-75
2021/04/10 20:11:57;;;;;;;45.73;30.70;;;;;;;9.45;49.98;99551.28;471606;1170;114288;-75
2021/04/10 20:22:00;;;;;;;37.10;25.80;;;;;;;9.23;50.46;99565.66;471762;1170;114135;-74
2021/04/10 20:32:05;;;;;;;38.83;27.03;;;;;;;9.04;50.95;99560.66;471352;1171;114282;-74
2021/04/10 20:42:11;;;;;;;43.43;27.97;;;;;;;8.94;51.43;99569.05;471879;1170;114067;-75
2021/04/10 20:52:17;;;;;;;36.60;26.90;;;;;;;8.80;51.84;99569.86;471582;1171;114636;-74
2021/04/10 21:02:21;;;;;;;33.43;24.07;;;;;;;8.65;52.09;99582.03;471496;1170;115120;-75
2021/04/10 21:12:26;;;;;;;30.57;21.77;;;;;;;8.53;52.50;99598.42;471378;1170;114070;-75
2021/04/10 21:22:29;;;;;;;33.77;23.17;;;;;;;8.54;53.12;99602.73;471252;1170;114442;-75
2021/04/10 21:32:33;;;;;;;34.13;24.90;;;;;;;8.53;53.23;99611.52;471227;1171;114444;-76
2021/04/10 21:42:37;;;;;;;34.40;25.77;;;;;;;8.41;53.89;99621.70;470142;1171;114319;-75
2021/04/10 21:52:41;;;;;;;32.10;24.57;;;;;;;8.23;54.27;99626.16;470589;1172;114429;-75
2021/04/10 22:02:45;;;;;;;38.25;23.60;;;;;;;8.04;54.87;99631.53;471418;1171;114283;-75
2021/04/10 22:12:50;;;;;;;32.77;23.37;;;;;;;7.80;55.26;99625.80;471375;1170;114242;-76
2021/04/10 22:22:54;;;;;;;33.50;23.85;;;;;;;7.50;55.86;99634.28;471297;1171;114643;-76
2021/04/10 22:32:58;;;;;;;37.03;22.47;;;;;;;7.27;56.57;99615.38;471206;1171;114717;-75
2021/04/10 22:43:03;;;;;;;40.80;24.70;;;;;;;7.16;57.00;99610.70;471405;1171;114179;-74
2021/04/10 22:53:17;;;;;;;30.30;21.37;;;;;;;7.01;57.72;99621.00;472137;1171;114258;-75
2021/04/10 23:03:22;;;;;;;39.63;25.67;;;;;;;6.84;57.75;99611.38;471977;1171;115028;-75
2021/04/10 23:13:25;;;;;;;79.50;51.10;;;;;;;6.82;58.72;99620.19;472053;1171;113921;-75
2021/04/10 23:23:29;;;;;;;99.30;60.55;;;;;;;6.85;59.38;99620.89;472135;1171;113989;-76
2021/04/10 23:33:34;;;;;;;67.60;44.13;;;;;;;6.86;59.32;99606.06;464282;1171;10001311;-75
2021/04/10 23:43:38;;;;;;;64.33;43.43;;;;;;;6.77;59.58;99609.14;471162;1171;114618;-69
2021/04/10 23:53:42;;;;;;;60.20;40.60;;;;;;;6.56;60.03;99597.02;470713;1170;114579;-68
